Airfield :
LOGIN :

Register | Disclaimer

   EN    FR    IT 

 










Legend :    VFR   Marginal VFR   IFR   Intensive IFR   Very Intensive IFR
Visi :
Ceiling :
>= 8 km
>= 3000ft
5 to 8 km
1000 to 3000 ft
1500m to 5 km
500 to 1000 ft
800 to 1500m
200 to 500 ft
< 800m
< 200 ft
Symbols :   Thunderstorms  Fog  Heavy snow  Heavy precipitations  Wind > 20 kt
SIGMETs :     Misc.  Thunderstorms  Icing  Turbulence  Mountain Waves  Volcanic Ashes






- Airport Elevation : 2835 ft
- IATA code : ISE


LTFC - Suleyman Demirel

CURRENT METAR :
  • 031650Z 05008KT 9999 FEW025CB SCT030 26/11 Q1011

EXPIRED METARs :
  • 031620Z 06009KT 9999 FEW025CB SCT030 27/11 Q1011 RMK RWY23 06009KT
  • 031550Z 01008KT 9999 FEW025CB SCT030 28/12 Q1010
  • 031520Z 07008KT 9999 FEW025CB SCT030 29/13 Q1010 RMK RWY23 11006KT 350V140
  • 031450Z VRB04KT 9999 FEW025CB BKN030 28/13 Q1010 RETS RMK RWY23 11013KT
  • 031420Z 14013KT 110V170 9999 TS FEW025CB BKN030 29/12 Q1010 RMK RWY23 13012KT 110V170

TAF TAF LTFC
Valid from the 03 at 12:00 until the 04 at 12:00 UTC


031040Z 0312/0412 VRB02KT 9999 FEW020CB BKN030
TEMPO 0312/0316 VRB15G25KT -TSRA
PROB30
TEMPO 0316/0318 -TSRA
BECMG 0318/0320 SCT035
BECMG 0322/0402 CAVOK



MET'MAP, your aeronautical weather chart ! - Copyright ORBIFLY December 2007 - Disclaimer

ORBIFLY MET'MAP TEAM :

Programming & Development : Alexandra Zaïnal
Concept & original design : Baudouin d'Aumeries
Assistance for programming : Marc-Olivier Méhu
Technical & hardware support : Manuel Goepfert

Contact : metmap@orbifly.com




SOURCES & CREDITS :

   NOAA